createdAt,value
2022-08-05T00:01:48.997Z,22.90
2022-08-05T00:04:20.261Z,22.80
2022-08-05T00:06:51.721Z,22.90
2022-08-05T00:09:20.461Z,23.00
2022-08-05T00:11:56.029Z,22.90
2022-08-05T00:14:29.136Z,22.80
2022-08-05T00:16:57.940Z,22.60
2022-08-05T00:19:33.322Z,22.60
2022-08-05T00:22:11.099Z,22.50
2022-08-05T00:24:42.370Z,22.30
2022-08-05T00:27:14.082Z,22.20
2022-08-05T00:29:44.837Z,22.10
2022-08-05T00:32:15.356Z,22.00
2022-08-05T00:35:04.416Z,21.90
2022-08-05T00:37:35.762Z,22.00
2022-08-05T00:40:27.206Z,22.00
2022-08-05T00:43:02.031Z,21.90
2022-08-05T00:45:43.123Z,21.80
2022-08-05T00:48:18.032Z,21.80
2022-08-05T00:50:55.434Z,21.80
2022-08-05T00:54:00.002Z,21.80
2022-08-05T00:56:12.942Z,21.80
2022-08-05T00:58:45.656Z,21.80
2022-08-05T01:01:15.870Z,21.80
2022-08-05T01:03:52.925Z,21.90
2022-08-05T01:06:20.935Z,21.80
2022-08-05T01:09:00.644Z,21.80
2022-08-05T01:11:37.271Z,21.80
2022-08-05T01:14:49.538Z,21.70
2022-08-05T01:17:43.953Z,21.60
2022-08-05T01:20:43.332Z,21.50
2022-08-05T01:23:39.171Z,21.40
2022-08-05T01:26:21.814Z,21.40
2022-08-05T01:29:05.026Z,21.40
2022-08-05T01:31:42.451Z,21.40
2022-08-05T01:34:32.873Z,21.40
2022-08-05T01:37:24.536Z,21.30
2022-08-05T01:39:59.109Z,21.20
2022-08-05T01:42:29.755Z,21.30
2022-08-05T01:45:04.326Z,21.30
2022-08-05T01:47:39.269Z,21.20
2022-08-05T01:50:30.633Z,21.10
2022-08-05T01:53:02.368Z,21.00
2022-08-05T01:55:36.215Z,21.10
2022-08-05T01:58:15.636Z,21.00
2022-08-05T02:00:49.598Z,21.00
2022-08-05T02:03:31.475Z,21.00
2022-08-05T02:06:37.074Z,21.00
2022-08-05T02:08:57.865Z,21.00
2022-08-05T02:11:42.124Z,21.20
2022-08-05T02:14:15.594Z,21.20
2022-08-05T02:16:53.152Z,21.20
2022-08-05T02:19:47.010Z,21.30
2022-08-05T02:22:30.584Z,21.30
2022-08-05T02:25:06.006Z,21.30
2022-08-05T02:27:58.601Z,21.30
2022-08-05T02:30:34.408Z,21.30
2022-08-05T02:33:03.811Z,21.30
2022-08-05T02:35:38.519Z,21.20
2022-08-05T02:38:19.382Z,21.20
2022-08-05T02:40:48.092Z,21.20
2022-08-05T02:43:18.217Z,21.30
2022-08-05T02:45:52.897Z,21.30
2022-08-05T02:48:29.320Z,21.30
2022-08-05T02:51:00.708Z,21.30
2022-08-05T02:53:39.431Z,21.30
2022-08-05T02:56:16.156Z,21.30
2022-08-05T02:58:51.635Z,21.30
2022-08-05T03:01:24.120Z,21.30
2022-08-05T03:04:08.905Z,21.10
2022-08-05T03:06:53.877Z,21.10
2022-08-05T03:09:37.369Z,21.00
2022-08-05T03:12:07.835Z,20.90
2022-08-05T03:14:45.635Z,20.80
2022-08-05T03:17:14.318Z,20.80
2022-08-05T03:19:42.454Z,21.00
2022-08-05T03:22:16.093Z,21.00
2022-08-05T03:24:50.961Z,21.10
2022-08-05T03:27:21.687Z,21.10
2022-08-05T03:30:08.300Z,21.10
2022-08-05T03:32:39.087Z,21.10
2022-08-05T03:35:10.995Z,21.00
2022-08-05T03:37:46.382Z,21.00
2022-08-05T03:40:15.430Z,21.00
2022-08-05T03:42:52.981Z,21.00
2022-08-05T03:45:23.266Z,21.00
2022-08-05T03:47:52.009Z,20.90
2022-08-05T03:50:28.977Z,20.90
2022-08-05T03:55:49.774Z,20.80
2022-08-05T03:56:11.510Z,20.80
2022-08-05T03:58:46.982Z,20.80
2022-08-05T04:01:20.731Z,20.70
2022-08-05T04:04:08.979Z,20.60
2022-08-05T04:06:40.558Z,20.60
2022-08-05T04:09:25.967Z,20.60
2022-08-05T04:11:56.546Z,20.60
2022-08-05T04:14:29.950Z,20.60
2022-08-05T04:17:00.406Z,20.60
2022-08-05T04:19:29.782Z,20.60
2022-08-05T04:22:08.063Z,20.60
2022-08-05T04:24:52.623Z,20.70
2022-08-05T04:27:41.616Z,20.80
2022-08-05T04:30:09.969Z,20.80
2022-08-05T04:32:38.055Z,20.80
2022-08-05T04:35:07.795Z,20.80
2022-08-05T04:38:02.896Z,20.80
2022-08-05T04:40:35.278Z,20.80
2022-08-05T04:43:04.479Z,20.90
2022-08-05T04:45:48.104Z,21.00
2022-08-05T04:48:27.501Z,21.00
2022-08-05T04:51:03.674Z,21.10
2022-08-05T04:53:39.807Z,21.10
2022-08-05T04:56:32.356Z,21.10
2022-08-05T04:58:56.590Z,21.30
2022-08-05T05:02:05.725Z,21.40
2022-08-05T05:04:12.990Z,21.40
2022-08-05T05:06:49.205Z,21.30
2022-08-05T05:09:20.018Z,21.30
2022-08-05T05:11:55.672Z,21.20
2022-08-05T05:14:31.718Z,21.20
2022-08-05T05:17:00.956Z,21.20
2022-08-05T05:19:36.976Z,21.20
2022-08-05T05:22:24.473Z,21.30
2022-08-05T05:24:58.120Z,21.50
2022-08-05T05:27:45.819Z,21.60
2022-08-05T05:30:29.830Z,21.60
2022-08-05T05:33:14.189Z,21.70
2022-08-05T05:35:47.497Z,21.90
2022-08-05T05:38:22.607Z,22.00
2022-08-05T05:40:58.529Z,22.10
2022-08-05T05:43:54.065Z,22.30
2022-08-05T05:46:17.778Z,22.50
2022-08-05T05:48:48.209Z,22.80
2022-08-05T05:51:23.728Z,23.30
2022-08-05T05:53:57.635Z,23.70
2022-08-05T05:56:32.182Z,24.00
2022-08-05T05:59:07.374Z,24.30
2022-08-05T06:01:39.494Z,23.90
2022-08-05T06:04:13.051Z,23.50
2022-08-05T06:06:46.625Z,23.70
2022-08-05T06:09:24.874Z,24.00
2022-08-05T06:11:59.646Z,24.20
2022-08-05T06:14:31.575Z,24.70
2022-08-05T06:17:01.889Z,25.00
2022-08-05T06:19:34.967Z,25.20
2022-08-05T06:22:06.375Z,25.30
2022-08-05T06:24:35.706Z,24.80
2022-08-05T06:27:04.266Z,25.10
2022-08-05T06:29:46.307Z,25.50
2022-08-05T06:32:25.675Z,25.60
2022-08-05T06:34:56.538Z,25.40
2022-08-05T06:37:57.376Z,25.10
2022-08-05T06:40:18.278Z,24.40
2022-08-05T06:42:51.968Z,24.60
2022-08-05T06:46:03.412Z,24.50
2022-08-05T06:48:55.266Z,24.80
2022-08-05T06:51:00.709Z,25.20
2022-08-05T06:53:29.243Z,25.50
2022-08-05T06:56:00.834Z,25.80
2022-08-05T06:58:35.113Z,26.00
2022-08-05T07:01:07.696Z,25.50
2022-08-05T07:03:35.805Z,25.60
2022-08-05T07:06:05.818Z,26.20
2022-08-05T07:08:47.240Z,26.80
2022-08-05T07:11:15.939Z,26.50
2022-08-05T07:14:03.252Z,26.50
2022-08-05T07:18:01.615Z,27.10
2022-08-05T07:22:28.812Z,27.00
2022-08-05T07:25:22.381Z,27.40
2022-08-05T07:27:58.073Z,27.10
2022-08-05T07:30:34.536Z,27.70
2022-08-05T07:33:16.063Z,27.10
2022-08-05T07:36:03.389Z,27.40
2022-08-05T07:38:42.583Z,28.20
2022-08-05T07:42:13.824Z,28.50
2022-08-05T07:44:14.266Z,28.50
2022-08-05T07:46:49.627Z,28.00
2022-08-05T07:49:18.935Z,27.90
2022-08-05T07:51:53.817Z,28.60
2022-08-05T07:54:31.226Z,28.10
2022-08-05T07:57:17.732Z,28.40
2022-08-05T07:59:51.658Z,29.00
2022-08-05T08:02:26.763Z,29.00
2022-08-05T08:05:01.794Z,28.20
2022-08-05T08:07:39.404Z,28.00
2022-08-05T08:10:20.756Z,27.90
2022-08-05T08:12:50.161Z,28.30
2022-08-05T08:15:18.286Z,28.80
2022-08-05T08:18:13.776Z,29.70
2022-08-05T08:21:01.805Z,30.30
2022-08-05T08:24:01.160Z,30.70
2022-08-05T08:26:29.476Z,31.10
2022-08-05T08:29:21.756Z,31.20
2022-08-05T08:31:48.561Z,31.10
2022-08-05T08:34:18.721Z,30.80
2022-08-05T08:37:01.755Z,31.30
2022-08-05T08:39:33.542Z,31.50
2022-08-05T08:42:27.542Z,31.50
2022-08-05T08:45:20.091Z,31.60
2022-08-05T08:48:12.909Z,31.80
2022-08-05T08:51:03.069Z,31.90
2022-08-05T08:53:37.126Z,31.40
2022-08-05T08:56:06.613Z,31.60
2022-08-05T08:58:43.285Z,31.70
2022-08-05T09:01:16.867Z,31.30
2022-08-05T09:03:48.231Z,31.60
2022-08-05T09:06:24.203Z,31.50
2022-08-05T09:08:57.291Z,31.70
2022-08-05T09:11:53.076Z,31.60
2022-08-05T09:14:58.978Z,32.00
2022-08-05T09:17:03.976Z,31.70
2022-08-05T09:20:01.532Z,31.50
2022-08-05T09:22:31.528Z,31.90
2022-08-05T09:25:01.681Z,32.20
2022-08-05T09:28:04.169Z,31.90
2022-08-05T09:30:29.421Z,32.20
2022-08-05T09:33:02.687Z,32.50
2022-08-05T09:35:32.880Z,32.70
2022-08-05T09:38:16.648Z,32.30
2022-08-05T09:40:52.240Z,31.90
2022-08-05T09:43:41.005Z,31.40
2022-08-05T09:46:27.564Z,31.70
2022-08-05T09:49:07.004Z,31.60
2022-08-05T09:51:39.898Z,31.30
2022-08-05T09:54:11.677Z,31.70
2022-08-05T09:56:52.305Z,31.90
2022-08-05T09:59:24.365Z,31.90
2022-08-05T10:01:58.751Z,32.10
2022-08-05T10:04:38.500Z,32.00
2022-08-05T10:07:19.560Z,32.00
2022-08-05T10:10:14.662Z,31.90
2022-08-05T10:12:55.074Z,32.00
2022-08-05T10:15:26.045Z,32.40
2022-08-05T10:18:13.336Z,32.60
2022-08-05T10:20:50.632Z,31.90
2022-08-05T10:23:55.687Z,31.50
2022-08-05T10:26:15.419Z,31.80
2022-08-05T10:28:46.325Z,31.60
2022-08-05T10:32:50.751Z,31.70
2022-08-05T10:34:04.225Z,31.90
2022-08-05T10:36:40.634Z,31.90
2022-08-05T10:39:25.244Z,31.90
2022-08-05T10:42:22.918Z,32.40
2022-08-05T10:45:21.530Z,32.60
2022-08-05T10:48:29.232Z,32.30
2022-08-05T10:51:00.558Z,32.40
2022-08-05T10:53:42.756Z,32.10
2022-08-05T10:56:25.923Z,32.20
2022-08-05T10:58:54.166Z,32.50
2022-08-05T11:02:04.670Z,32.60
2022-08-05T11:04:26.120Z,32.90
2022-08-05T11:07:01.491Z,33.20
2022-08-05T11:09:46.632Z,33.50
2022-08-05T11:12:50.784Z,33.60
2022-08-05T11:16:00.454Z,33.00
2022-08-05T11:18:29.807Z,32.80
2022-08-05T11:20:59.095Z,33.20
2022-08-05T11:24:50.814Z,33.30
2022-08-05T11:27:50.991Z,33.40
2022-08-05T11:30:19.878Z,33.40
2022-08-05T11:32:47.993Z,33.40
2022-08-05T11:36:04.397Z,33.30
2022-08-05T11:38:45.875Z,33.40
2022-08-05T11:41:54.420Z,33.60
2022-08-05T11:44:40.885Z,33.30
2022-08-05T11:47:12.054Z,32.90
2022-08-05T11:49:58.754Z,33.30
2022-08-05T11:52:29.248Z,33.40
2022-08-05T11:54:59.402Z,33.60
2022-08-05T11:58:07.943Z,33.90
2022-08-05T12:00:31.047Z,33.80
2022-08-05T12:03:28.990Z,33.70
2022-08-05T12:06:06.652Z,33.70
2022-08-05T12:08:57.752Z,34.00
2022-08-05T12:11:40.095Z,33.60
2022-08-05T12:14:10.271Z,33.70
2022-08-05T12:16:45.536Z,33.70
2022-08-05T12:20:26.465Z,33.70
2022-08-05T12:22:09.523Z,33.90
2022-08-05T12:24:49.429Z,33.80
2022-08-05T12:27:25.455Z,33.90
2022-08-05T12:30:07.290Z,34.10
2022-08-05T12:32:43.673Z,34.40
2022-08-05T12:35:21.497Z,34.30
2022-08-05T12:37:50.261Z,34.00
2022-08-05T12:40:28.575Z,34.20
2022-08-05T12:42:57.662Z,34.20
2022-08-05T12:45:49.798Z,34.30
2022-08-05T12:48:27.570Z,34.20
2022-08-05T12:51:21.898Z,34.10
2022-08-05T12:54:14.726Z,34.40
2022-08-05T12:56:50.907Z,34.50
2022-08-05T12:59:46.571Z,34.20
2022-08-05T13:02:27.386Z,34.40
2022-08-05T13:04:58.940Z,34.30
2022-08-05T13:07:57.427Z,34.30
2022-08-05T13:10:19.951Z,34.60
2022-08-05T13:12:57.773Z,34.60
2022-08-05T13:15:35.833Z,34.80
2022-08-05T13:18:10.607Z,34.80
2022-08-05T13:20:40.377Z,34.60
2022-08-05T13:23:08.634Z,34.50
2022-08-05T13:25:51.898Z,34.10
2022-08-05T13:28:28.459Z,34.30
2022-08-05T13:30:57.266Z,34.40
2022-08-05T13:34:24.570Z,34.40
2022-08-05T13:36:14.565Z,34.50
2022-08-05T13:38:43.340Z,34.50
2022-08-05T13:41:11.947Z,34.40
2022-08-05T13:43:44.738Z,34.20
2022-08-05T13:46:35.751Z,34.10
2022-08-05T13:49:09.890Z,33.90
2022-08-05T13:51:41.338Z,33.60
2022-08-05T13:54:12.321Z,33.50
2022-08-05T13:56:45.524Z,33.40
2022-08-05T13:59:24.988Z,33.30
2022-08-05T14:01:59.581Z,33.30
2022-08-05T14:04:52.010Z,33.20
2022-08-05T14:08:00.347Z,33.10
2022-08-05T14:10:29.246Z,33.10
2022-08-05T14:12:59.837Z,33.10
2022-08-05T14:16:04.879Z,33.00
2022-08-05T14:18:18.297Z,32.90
2022-08-05T14:20:54.746Z,33.10
2022-08-05T14:23:25.671Z,33.00
2022-08-05T14:25:59.072Z,33.10
2022-08-05T14:28:28.897Z,32.90
2022-08-05T14:31:00.878Z,33.00
2022-08-05T14:33:32.567Z,33.00
2022-08-05T14:36:21.536Z,32.90
2022-08-05T14:38:51.324Z,33.00
2022-08-05T14:41:19.413Z,33.00
2022-08-05T14:43:57.732Z,33.00
2022-08-05T14:46:32.624Z,33.00
2022-08-05T14:49:06.556Z,33.00
2022-08-05T14:51:37.990Z,33.20
2022-08-05T14:54:28.328Z,33.20
2022-08-05T14:56:55.799Z,33.30
2022-08-05T14:59:24.264Z,33.10
2022-08-05T15:01:53.825Z,33.10
2022-08-05T15:04:22.718Z,33.20
2022-08-05T15:06:51.310Z,33.30
2022-08-05T15:09:51.770Z,33.30
2022-08-05T15:12:16.501Z,33.20
2022-08-05T15:14:49.888Z,33.20
2022-08-05T15:17:46.124Z,33.20
2022-08-05T15:20:18.307Z,33.20
2022-08-05T15:22:53.995Z,33.20
2022-08-05T15:25:50.910Z,33.30
2022-08-05T15:28:14.414Z,33.30
2022-08-05T15:30:46.469Z,33.40
2022-08-05T15:34:05.941Z,33.30
2022-08-05T15:36:05.138Z,33.10
2022-08-05T15:38:40.878Z,33.10
2022-08-05T15:41:21.998Z,32.90
2022-08-05T15:43:54.559Z,33.00
2022-08-05T15:46:24.234Z,33.00
2022-08-05T15:49:00.567Z,32.90
2022-08-05T15:52:13.717Z,32.80
2022-08-05T15:54:34.442Z,32.80
2022-08-05T15:57:02.838Z,32.80
2022-08-05T15:59:36.096Z,32.70
2022-08-05T16:02:04.127Z,32.80
2022-08-05T16:04:37.789Z,32.90
2022-08-05T16:07:07.053Z,32.90
2022-08-05T16:09:41.508Z,32.90
2022-08-05T16:12:10.125Z,33.00
2022-08-05T16:14:40.146Z,33.10
2022-08-05T16:17:08.196Z,33.20
2022-08-05T16:20:04.841Z,33.20
2022-08-05T16:22:27.778Z,32.90
2022-08-05T16:25:08.218Z,32.90
2022-08-05T16:28:00.901Z,32.90
2022-08-05T16:30:53.308Z,32.70
2022-08-05T16:33:21.804Z,32.40
2022-08-05T16:35:52.920Z,32.40
2022-08-05T16:38:25.365Z,32.40
2022-08-05T16:41:00.103Z,32.10
2022-08-05T16:43:34.537Z,32.00
2022-08-05T16:46:24.354Z,31.90
2022-08-05T16:48:52.879Z,31.70
2022-08-05T16:51:20.913Z,31.70
2022-08-05T16:54:03.247Z,31.50
2022-08-05T16:56:35.293Z,31.60
2022-08-05T16:59:07.700Z,31.50
2022-08-05T17:01:52.838Z,31.40
2022-08-05T17:04:27.791Z,31.50
2022-08-05T17:07:01.285Z,31.50
2022-08-05T17:09:30.467Z,31.60
2022-08-05T17:12:06.943Z,31.80
2022-08-05T17:14:37.386Z,31.60
2022-08-05T17:17:09.298Z,31.70
2022-08-05T17:19:45.601Z,31.70
2022-08-05T17:22:24.735Z,31.70
2022-08-05T17:24:57.542Z,31.60
2022-08-05T17:27:33.678Z,31.60
2022-08-05T17:30:07.094Z,31.50
2022-08-05T17:32:42.225Z,31.30
2022-08-05T17:35:12.213Z,30.90
2022-08-05T17:37:45.470Z,29.90
2022-08-05T17:40:41.073Z,28.90
2022-08-05T17:43:10.517Z,28.60
2022-08-05T17:45:40.301Z,28.60
2022-08-05T17:48:08.869Z,28.50
2022-08-05T17:50:37.013Z,28.30
2022-08-05T17:53:08.509Z,28.20
2022-08-05T17:55:39.681Z,28.10
2022-08-05T17:58:10.787Z,28.10
2022-08-05T18:00:44.386Z,28.10
2022-08-05T18:03:28.044Z,28.20
2022-08-05T18:06:06.151Z,28.20
2022-08-05T18:08:40.516Z,28.30
2022-08-05T18:11:24.253Z,28.30
2022-08-05T18:14:07.111Z,28.30
2022-08-05T18:16:51.181Z,28.30
2022-08-05T18:19:23.169Z,28.30
2022-08-05T18:22:09.669Z,28.30
2022-08-05T18:24:40.233Z,28.20
2022-08-05T18:27:12.431Z,28.10
2022-08-05T18:29:53.559Z,27.90
2022-08-05T18:32:27.758Z,27.80
2022-08-05T18:34:57.369Z,27.70
2022-08-05T18:37:33.920Z,27.50
2022-08-05T18:41:51.035Z,27.40
2022-08-05T18:42:57.826Z,27.20
2022-08-05T18:45:25.936Z,27.10
2022-08-05T18:48:11.393Z,27.20
2022-08-05T18:52:06.150Z,27.10
2022-08-05T18:54:36.091Z,27.10
2022-08-05T18:57:09.711Z,27.00
2022-08-05T19:00:02.544Z,26.80
2022-08-05T19:02:33.792Z,26.70
2022-08-05T19:06:05.969Z,26.60
2022-08-05T19:07:52.628Z,26.50
2022-08-05T19:10:28.480Z,26.50
2022-08-05T19:12:57.611Z,26.50
2022-08-05T19:16:00.257Z,26.50
2022-08-05T19:18:20.921Z,26.50
2022-08-05T19:20:52.498Z,26.50
2022-08-05T19:24:03.707Z,26.30
2022-08-05T19:26:09.370Z,26.10
2022-08-05T19:28:43.628Z,25.90
2022-08-05T19:31:44.908Z,25.90
2022-08-05T19:34:19.216Z,25.90
2022-08-05T19:36:47.317Z,26.10
2022-08-05T19:39:17.287Z,26.10
2022-08-05T19:42:06.439Z,26.10
2022-08-05T19:44:36.288Z,26.10
2022-08-05T19:47:15.281Z,26.10
2022-08-05T19:49:46.271Z,26.10
2022-08-05T19:52:30.849Z,26.00
2022-08-05T19:55:07.046Z,26.00
2022-08-05T19:58:19.554Z,25.80
2022-08-05T20:00:37.864Z,25.70
2022-08-05T20:03:08.970Z,25.60
2022-08-05T20:05:43.143Z,25.40
2022-08-05T20:08:11.469Z,25.40
2022-08-05T20:10:39.811Z,25.40
2022-08-05T20:13:12.205Z,25.40
2022-08-05T20:15:51.519Z,25.50
2022-08-05T20:18:33.391Z,25.50
2022-08-05T20:21:05.059Z,25.40
2022-08-05T20:23:39.725Z,25.30
2022-08-05T20:26:21.743Z,25.20
2022-08-05T20:28:55.930Z,25.20
2022-08-05T20:31:36.902Z,25.20
2022-08-05T20:34:12.530Z,25.20
2022-08-05T20:36:43.543Z,25.20
2022-08-05T20:39:13.552Z,25.20
2022-08-05T20:41:45.348Z,25.20
2022-08-05T20:44:29.046Z,25.20
2022-08-05T20:47:00.443Z,25.20
2022-08-05T20:49:28.550Z,25.20
2022-08-05T20:51:57.613Z,25.10
2022-08-05T20:54:42.943Z,25.00
2022-08-05T20:57:24.905Z,24.90
2022-08-05T21:00:19.958Z,24.90
2022-08-05T21:02:57.859Z,24.90
2022-08-05T21:05:28.582Z,24.80
2022-08-05T21:08:14.023Z,24.80
2022-08-05T21:10:48.939Z,24.90
2022-08-05T21:13:41.298Z,24.80
2022-08-05T21:16:05.797Z,24.80
2022-08-05T21:18:33.687Z,24.60
2022-08-05T21:21:01.610Z,24.50
2022-08-05T21:23:37.279Z,24.50
2022-08-05T21:26:12.178Z,24.50
2022-08-05T21:28:50.611Z,24.50
2022-08-05T21:31:19.578Z,24.50
2022-08-05T21:33:49.502Z,24.40
2022-08-05T21:36:27.534Z,24.40
2022-08-05T21:38:58.525Z,24.40
2022-08-05T21:41:33.669Z,24.40
2022-08-05T21:44:04.297Z,24.30
2022-08-05T21:46:34.260Z,24.20
2022-08-05T21:49:07.534Z,24.20
2022-08-05T21:52:21.759Z,24.10
2022-08-05T21:54:30.753Z,23.90
2022-08-05T22:00:03.216Z,23.90
2022-08-05T22:02:41.808Z,23.80
2022-08-05T22:05:12.454Z,23.80
2022-08-05T22:07:58.401Z,23.80
2022-08-05T22:10:28.296Z,23.90
2022-08-05T22:13:08.687Z,23.80
2022-08-05T22:16:01.210Z,23.80
2022-08-05T22:18:35.813Z,23.80
2022-08-05T22:21:04.273Z,23.90
2022-08-05T22:24:02.540Z,23.90
2022-08-05T22:26:55.565Z,23.90
2022-08-05T22:29:26.719Z,23.90
2022-08-05T22:31:59.460Z,24.00
2022-08-05T22:34:32.998Z,24.00
2022-08-05T22:37:03.959Z,23.90
2022-08-05T22:39:34.466Z,24.00
2022-08-05T22:42:11.768Z,24.00
2022-08-05T22:44:48.308Z,23.90
2022-08-05T22:47:29.556Z,23.90
2022-08-05T22:50:21.847Z,23.90
2022-08-05T22:52:48.914Z,23.90
2022-08-05T22:55:18.943Z,23.90
2022-08-05T22:57:50.373Z,23.90
2022-08-05T23:00:20.977Z,23.90
2022-08-05T23:02:52.105Z,24.00
2022-08-05T23:05:21.861Z,23.90
2022-08-05T23:07:51.445Z,23.90
2022-08-05T23:10:44.522Z,23.80
2022-08-05T23:13:12.392Z,23.80
2022-08-05T23:15:40.431Z,23.80
2022-08-05T23:18:11.856Z,23.70
2022-08-05T23:20:44.167Z,23.60
2022-08-05T23:23:12.007Z,23.50
2022-08-05T23:25:52.909Z,23.40
2022-08-05T23:28:27.703Z,23.40
2022-08-05T23:31:15.638Z,23.30
2022-08-05T23:34:04.360Z,23.20
2022-08-05T23:36:41.479Z,23.10
2022-08-05T23:39:17.219Z,23.00
2022-08-05T23:41:53.889Z,23.00
2022-08-05T23:44:27.847Z,23.00
2022-08-05T23:47:02.639Z,22.90
2022-08-05T23:49:46.410Z,23.00
2022-08-05T23:52:27.766Z,22.90
2022-08-05T23:54:58.204Z,22.90
2022-08-05T23:57:28.005Z,22.80
